UAL314 KJFK-KPHL
Flight info
| Callsign | UAL314 |
|---|---|
| Flight time | 0h 38m |
| Altitude | 16000 |
| Route | DIXIE T224 JIIMS OOD/N0374F150 |
| Aircraft | A320/M-SDE3FGHIRWY/LB1 |
Departure
| Time | 2026-05-09 17:01 |
|---|---|
| Airport | John F. Kennedy International Airport (KJFK) |
Arrival
| Time | 2026-05-09 17:40 |
|---|---|
| Airport | Philadelphia International Airport (KPHL) |
| Time | Latitude | Longitude | Altitude | Speed | Heading |
|---|---|---|---|---|---|
| 2026-05-09 16:33 | 40.64538 | -73.77337 | 21 ft | 0 kts | 358° |
| 2026-05-09 16:51 | 40.64526 | -73.77336 | 22 ft | 2 kts | 1° |
| 2026-05-09 16:51 | 40.64510 | -73.77337 | 21 ft | 2 kts | 4° |
| 2026-05-09 16:51 | 40.64493 | -73.77339 | 21 ft | 2 kts | 10° |
| 2026-05-09 16:52 | 40.64477 | -73.77343 | 23 ft | 2 kts | 20° |
| 2026-05-09 16:52 | 40.64462 | -73.77353 | 22 ft | 2 kts | 44° |
| 2026-05-09 16:52 | 40.64453 | -73.77370 | 20 ft | 2 kts | 77° |
| 2026-05-09 16:52 | 40.64450 | -73.77385 | 20 ft | 1 kts | 89° |
| 2026-05-09 16:53 | 40.64450 | -73.77387 | 20 ft | 0 kts | 89° |
| 2026-05-09 16:55 | 40.64451 | -73.77374 | 20 ft | 3 kts | 88° |
| 2026-05-09 16:55 | 40.64452 | -73.77319 | 20 ft | 8 kts | 88° |
| 2026-05-09 16:56 | 40.64450 | -73.77226 | 20 ft | 10 kts | 94° |
| 2026-05-09 16:56 | 40.64439 | -73.77122 | 20 ft | 13 kts | 103° |
| 2026-05-09 16:56 | 40.64430 | -73.77021 | 20 ft | 10 kts | 69° |
| 2026-05-09 16:56 | 40.64498 | -73.76985 | 20 ft | 12 kts | 12° |
| 2026-05-09 16:57 | 40.64580 | -73.76933 | 20 ft | 14 kts | 32° |
| 2026-05-09 16:57 | 40.64669 | -73.76862 | 20 ft | 16 kts | 29° |
| 2026-05-09 16:57 | 40.64771 | -73.76785 | 21 ft | 18 kts | 31° |
| 2026-05-09 16:57 | 40.64880 | -73.76697 | 21 ft | 19 kts | 32° |
| 2026-05-09 16:58 | 40.65002 | -73.76600 | 21 ft | 22 kts | 30° |
| 2026-05-09 16:58 | 40.65115 | -73.76504 | 23 ft | 2 kts | 73° |
| 2026-05-09 16:58 | 40.65100 | -73.76475 | 22 ft | 7 kts | 120° |
| 2026-05-09 16:58 | 40.65082 | -73.76433 | 22 ft | 0 kts | 120° |
| 2026-05-09 16:59 | 40.65080 | -73.76430 | 22 ft | 1 kts | 120° |
| 2026-05-09 16:59 | 40.65069 | -73.76406 | 19 ft | 5 kts | 121° |
| 2026-05-09 17:00 | 40.65026 | -73.76355 | 22 ft | 10 kts | 177° |
| 2026-05-09 17:00 | 40.64969 | -73.76395 | 22 ft | 0 kts | 210° |
| 2026-05-09 17:00 | 40.64964 | -73.76399 | 22 ft | 2 kts | 210° |
| 2026-05-09 17:00 | 40.64909 | -73.76441 | 23 ft | 32 kts | 210° |
| 2026-05-09 17:01 | 40.64516 | -73.76748 | 20 ft | 97 kts | 211° |
| 2026-05-09 17:01 | 40.63771 | -73.77326 | 28 ft | 146 kts | 209° |
| 2026-05-09 17:01 | 40.62856 | -73.78039 | 406 ft | 156 kts | 208° |
| 2026-05-09 17:01 | 40.61913 | -73.78746 | 1031 ft | 162 kts | 214° |
| 2026-05-09 17:02 | 40.60851 | -73.79551 | 1343 ft | 188 kts | 215° |
| 2026-05-09 17:02 | 40.59673 | -73.80523 | 1773 ft | 212 kts | 216° |
| 2026-05-09 17:02 | 40.58359 | -73.81626 | 2285 ft | 236 kts | 216° |
| 2026-05-09 17:02 | 40.56932 | -73.82812 | 3055 ft | 247 kts | 216° |
| 2026-05-09 17:03 | 40.55469 | -73.84007 | 4044 ft | 249 kts | 216° |
| 2026-05-09 17:04 | 40.44652 | -73.92525 | 10153 ft | 272 kts | 217° |
| 2026-05-09 17:05 | 40.42937 | -73.93805 | 10417 ft | 296 kts | 217° |
| 2026-05-09 17:05 | 40.41081 | -73.95201 | 10592 ft | 319 kts | 217° |
| 2026-05-09 17:05 | 40.39103 | -73.96706 | 10850 ft | 337 kts | 217° |
| 2026-05-09 17:05 | 40.37050 | -73.98268 | 11444 ft | 344 kts | 217° |
| 2026-05-09 17:06 | 40.34958 | -73.99835 | 12110 ft | 349 kts | 217° |
| 2026-05-09 17:06 | 40.32822 | -74.01401 | 12761 ft | 354 kts | 217° |
| 2026-05-09 17:06 | 40.30644 | -74.02964 | 13463 ft | 359 kts | 217° |
| 2026-05-09 17:06 | 40.28426 | -74.04525 | 14138 ft | 364 kts | 217° |
| 2026-05-09 17:07 | 40.26191 | -74.06097 | 14762 ft | 366 kts | 217° |
| 2026-05-09 17:07 | 40.24705 | -74.07147 | 15178 ft | 368 kts | 217° |
| 2026-05-09 17:07 | 40.21685 | -74.09292 | 15829 ft | 371 kts | 217° |
| 2026-05-09 17:07 | 40.19416 | -74.10912 | 15941 ft | 370 kts | 217° |
| 2026-05-09 17:08 | 40.17162 | -74.12525 | 15960 ft | 370 kts | 217° |
| 2026-05-09 17:08 | 40.12678 | -74.15724 | 15960 ft | 369 kts | 217° |
| 2026-05-09 17:08 | 40.10426 | -74.17332 | 15961 ft | 369 kts | 217° |
| 2026-05-09 17:09 | 40.08183 | -74.18956 | 15964 ft | 368 kts | 218° |
| 2026-05-09 17:09 | 40.05988 | -74.20652 | 15965 ft | 366 kts | 219° |
| 2026-05-09 17:09 | 40.03823 | -74.22405 | 15956 ft | 366 kts | 220° |
| 2026-05-09 17:09 | 40.01678 | -74.24188 | 15953 ft | 365 kts | 220° |
| 2026-05-09 17:10 | 39.99547 | -74.26031 | 15953 ft | 376 kts | 222° |
| 2026-05-09 17:10 | 39.97378 | -74.28080 | 15956 ft | 393 kts | 224° |
| 2026-05-09 17:10 | 39.95176 | -74.30241 | 15952 ft | 398 kts | 224° |
| 2026-05-09 17:10 | 39.92965 | -74.32419 | 15949 ft | 399 kts | 224° |
| 2026-05-09 17:11 | 39.90735 | -74.34596 | 15952 ft | 400 kts | 223° |
| 2026-05-09 17:11 | 39.88497 | -74.36752 | 15952 ft | 400 kts | 223° |
| 2026-05-09 17:11 | 39.86251 | -74.38891 | 15953 ft | 400 kts | 223° |
| 2026-05-09 17:11 | 39.84001 | -74.41024 | 15956 ft | 400 kts | 224° |
| 2026-05-09 17:12 | 39.81932 | -74.43380 | 15958 ft | 392 kts | 232° |
| 2026-05-09 17:12 | 39.80214 | -74.46091 | 15963 ft | 385 kts | 240° |
| 2026-05-09 17:12 | 39.78718 | -74.48975 | 15966 ft | 385 kts | 242° |
| 2026-05-09 17:12 | 39.77220 | -74.51865 | 15963 ft | 385 kts | 242° |
| 2026-05-09 17:13 | 39.75725 | -74.54747 | 15965 ft | 384 kts | 241° |
| 2026-05-09 17:13 | 39.74229 | -74.57629 | 15975 ft | 384 kts | 241° |
| 2026-05-09 17:13 | 39.72730 | -74.60507 | 15970 ft | 384 kts | 241° |
| 2026-05-09 17:13 | 39.71234 | -74.63377 | 15967 ft | 384 kts | 241° |
| 2026-05-09 17:14 | 39.69734 | -74.66251 | 15969 ft | 384 kts | 241° |
| 2026-05-09 17:14 | 39.68235 | -74.69118 | 15972 ft | 384 kts | 241° |
| 2026-05-09 17:14 | 39.66754 | -74.71945 | 15973 ft | 384 kts | 241° |
| 2026-05-09 17:14 | 39.65254 | -74.74805 | 15970 ft | 384 kts | 241° |
| 2026-05-09 17:15 | 39.63751 | -74.77673 | 15966 ft | 384 kts | 241° |
| 2026-05-09 17:15 | 39.62254 | -74.80536 | 15960 ft | 384 kts | 241° |
| 2026-05-09 17:15 | 39.60759 | -74.83401 | 15963 ft | 384 kts | 241° |
| 2026-05-09 17:15 | 39.59264 | -74.86266 | 15966 ft | 384 kts | 241° |
| 2026-05-09 17:16 | 39.57762 | -74.89138 | 15959 ft | 383 kts | 242° |
| 2026-05-09 17:17 | 39.59474 | -75.09485 | 12306 ft | 332 kts | 298° |
| 2026-05-09 17:18 | 39.60636 | -75.12080 | 11791 ft | 331 kts | 297° |
| 2026-05-09 17:18 | 39.61793 | -75.14662 | 11307 ft | 330 kts | 297° |
| 2026-05-09 17:18 | 39.62935 | -75.17216 | 10954 ft | 321 kts | 297° |
| 2026-05-09 17:18 | 39.64029 | -75.19664 | 10821 ft | 306 kts | 297° |
| 2026-05-09 17:19 | 39.65070 | -75.21997 | 10697 ft | 293 kts | 297° |
| 2026-05-09 17:19 | 39.66067 | -75.24234 | 10572 ft | 281 kts | 297° |
| 2026-05-09 17:19 | 39.67026 | -75.26388 | 10416 ft | 271 kts | 297° |
| 2026-05-09 17:19 | 39.67959 | -75.28491 | 10166 ft | 266 kts | 297° |
| 2026-05-09 17:20 | 39.68875 | -75.30558 | 9929 ft | 263 kts | 297° |
| 2026-05-09 17:20 | 39.69786 | -75.32618 | 9794 ft | 263 kts | 297° |
| 2026-05-09 17:20 | 39.70699 | -75.34683 | 9662 ft | 264 kts | 297° |
| 2026-05-09 17:20 | 39.71607 | -75.36739 | 9526 ft | 264 kts | 296° |
| 2026-05-09 17:21 | 39.72521 | -75.38807 | 9398 ft | 263 kts | 296° |
| 2026-05-09 17:21 | 39.73430 | -75.40863 | 9261 ft | 263 kts | 296° |
| 2026-05-09 17:21 | 39.74340 | -75.42919 | 9124 ft | 262 kts | 296° |
| 2026-05-09 17:21 | 39.75246 | -75.44971 | 8993 ft | 262 kts | 296° |
| 2026-05-09 17:22 | 39.76152 | -75.47021 | 8862 ft | 261 kts | 296° |
| 2026-05-09 17:22 | 39.77045 | -75.49043 | 8728 ft | 261 kts | 296° |
| 2026-05-09 17:22 | 39.77948 | -75.51092 | 8592 ft | 261 kts | 296° |
| 2026-05-09 17:22 | 39.78849 | -75.53138 | 8467 ft | 260 kts | 296° |
| 2026-05-09 17:23 | 39.79862 | -75.55078 | 8188 ft | 263 kts | 311° |
| 2026-05-09 17:23 | 39.81278 | -75.56613 | 7873 ft | 265 kts | 317° |
| 2026-05-09 17:23 | 39.82754 | -75.58053 | 7601 ft | 264 kts | 318° |
| 2026-05-09 17:23 | 39.84230 | -75.59469 | 7372 ft | 264 kts | 320° |
| 2026-05-09 17:25 | 39.93125 | -75.63200 | 5929 ft | 268 kts | 338° |
| 2026-05-09 17:25 | 39.94913 | -75.63865 | 5630 ft | 267 kts | 338° |
| 2026-05-09 17:25 | 39.96698 | -75.64542 | 5359 ft | 266 kts | 338° |
| 2026-05-09 17:25 | 39.98474 | -75.65217 | 5068 ft | 266 kts | 338° |
| 2026-05-09 17:26 | 40.00246 | -75.65898 | 4759 ft | 265 kts | 338° |
| 2026-05-09 17:26 | 40.02016 | -75.66579 | 4482 ft | 264 kts | 339° |
| 2026-05-09 17:26 | 40.03774 | -75.67268 | 4171 ft | 263 kts | 338° |
| 2026-05-09 17:26 | 40.05516 | -75.67960 | 4011 ft | 261 kts | 338° |
| 2026-05-09 17:27 | 40.07260 | -75.68649 | 4014 ft | 262 kts | 339° |
| 2026-05-09 17:27 | 40.09011 | -75.69345 | 4019 ft | 263 kts | 338° |
| 2026-05-09 17:27 | 40.10763 | -75.70018 | 4017 ft | 264 kts | 342° |
| 2026-05-09 17:27 | 40.12601 | -75.70007 | 4012 ft | 267 kts | 12° |
| 2026-05-09 17:28 | 40.14257 | -75.69022 | 4011 ft | 258 kts | 32° |
| 2026-05-09 17:28 | 40.15633 | -75.67584 | 4019 ft | 251 kts | 37° |
| 2026-05-09 17:28 | 40.16948 | -75.66086 | 4020 ft | 249 kts | 38° |
| 2026-05-09 17:28 | 40.18209 | -75.64633 | 4009 ft | 234 kts | 38° |
| 2026-05-09 17:29 | 40.19350 | -75.63187 | 4019 ft | 231 kts | 46° |
| 2026-05-09 17:29 | 40.20342 | -75.61496 | 4016 ft | 233 kts | 56° |
| 2026-05-09 17:29 | 40.21170 | -75.59711 | 4017 ft | 232 kts | 58° |
| 2026-05-09 17:29 | 40.21994 | -75.57891 | 4021 ft | 233 kts | 58° |
| 2026-05-09 17:30 | 40.22816 | -75.56065 | 4017 ft | 233 kts | 58° |
| 2026-05-09 17:30 | 40.23597 | -75.54206 | 4013 ft | 233 kts | 69° |
| 2026-05-09 17:30 | 40.23836 | -75.52134 | 4010 ft | 224 kts | 99° |
| 2026-05-09 17:30 | 40.23378 | -75.50289 | 3915 ft | 206 kts | 128° |
| 2026-05-09 17:31 | 40.22440 | -75.48944 | 3800 ft | 199 kts | 146° |
| 2026-05-09 17:31 | 40.21383 | -75.47756 | 3673 ft | 201 kts | 144° |
| 2026-05-09 17:32 | 40.17240 | -75.43036 | 3509 ft | 197 kts | 144° |
| 2026-05-09 17:32 | 40.16203 | -75.41855 | 3508 ft | 198 kts | 145° |
| 2026-05-09 17:32 | 40.15162 | -75.40674 | 3508 ft | 198 kts | 145° |
| 2026-05-09 17:33 | 40.14126 | -75.39500 | 3506 ft | 197 kts | 145° |
| 2026-05-09 17:33 | 40.13089 | -75.38325 | 3507 ft | 196 kts | 144° |
| 2026-05-09 17:33 | 40.12064 | -75.37161 | 3510 ft | 195 kts | 145° |
| 2026-05-09 17:33 | 40.11041 | -75.36001 | 3506 ft | 195 kts | 144° |
| 2026-05-09 17:34 | 40.10017 | -75.34842 | 3512 ft | 195 kts | 146° |
| 2026-05-09 17:35 | 40.03716 | -75.31153 | 2966 ft | 146 kts | 168° |
| 2026-05-09 17:35 | 40.02758 | -75.30726 | 2792 ft | 146 kts | 167° |
| 2026-05-09 17:36 | 40.01805 | -75.30262 | 2516 ft | 146 kts | 165° |
| 2026-05-09 17:36 | 40.00874 | -75.29772 | 2504 ft | 145 kts | 163° |
| 2026-05-09 17:36 | 39.99945 | -75.29252 | 2477 ft | 145 kts | 163° |
| 2026-05-09 17:36 | 39.99006 | -75.28732 | 2449 ft | 149 kts | 163° |
| 2026-05-09 17:37 | 39.98053 | -75.28210 | 2178 ft | 148 kts | 164° |
| 2026-05-09 17:37 | 39.97110 | -75.27716 | 1873 ft | 145 kts | 165° |
| 2026-05-09 17:37 | 39.96182 | -75.27266 | 1679 ft | 144 kts | 166° |
| 2026-05-09 17:37 | 39.95232 | -75.26833 | 1449 ft | 144 kts | 166° |
| 2026-05-09 17:38 | 39.94280 | -75.26385 | 1199 ft | 145 kts | 165° |
| 2026-05-09 17:38 | 39.93339 | -75.25909 | 1118 ft | 147 kts | 163° |
| 2026-05-09 17:38 | 39.92397 | -75.25396 | 827 ft | 146 kts | 165° |
| 2026-05-09 17:39 | 39.90469 | -75.24449 | 420 ft | 152 kts | 162° |
| 2026-05-09 17:39 | 39.89478 | -75.23963 | 183 ft | 155 kts | 162° |
| 2026-05-09 17:39 | 39.88465 | -75.23460 | 21 ft | 154 kts | 159° |
| 2026-05-09 17:39 | 39.87492 | -75.22989 | 19 ft | 140 kts | 160° |
| 2026-05-09 17:40 | 39.87095 | -75.22798 | 24 ft | 7 kts | 195° |
| 2026-05-09 17:40 | 39.87092 | -75.22809 | 23 ft | 1 kts | 270° |
| 2026-05-09 17:40 | 39.87092 | -75.22840 | 23 ft | 6 kts | 269° |
| 2026-05-09 17:40 | 39.87101 | -75.22922 | 20 ft | 12 kts | 298° |
| 2026-05-09 17:41 | 39.87154 | -75.23018 | 17 ft | 16 kts | 265° |
| 2026-05-09 17:41 | 39.87126 | -75.23174 | 16 ft | 18 kts | 272° |
| 2026-05-09 17:41 | 39.87180 | -75.23330 | 17 ft | 20 kts | 300° |
| 2026-05-09 17:41 | 39.87253 | -75.23496 | 18 ft | 21 kts | 301° |
| 2026-05-09 17:42 | 39.87322 | -75.23657 | 20 ft | 20 kts | 298° |
| 2026-05-09 17:42 | 39.87327 | -75.23790 | 20 ft | 15 kts | 256° |
| 2026-05-09 17:42 | 39.87354 | -75.23876 | 21 ft | 9 kts | 350° |
| 2026-05-09 17:42 | 39.87380 | -75.23934 | 22 ft | 9 kts | 255° |
| 2026-05-09 17:43 | 39.87363 | -75.24021 | 24 ft | 4 kts | 255° |
| 2026-05-09 17:43 | 39.87381 | -75.24050 | 25 ft | 6 kts | 342° |
| 2026-05-09 17:43 | 39.87421 | -75.24054 | 22 ft | 1 kts | 358° |
| 2026-05-09 17:43 | 39.87423 | -75.24054 | 22 ft | 0 kts | 358° |